sensor_id;sensor_type;location;lat;lon;timestamp;P1;durP1;ratioP1;P2;durP2;ratioP2
69594;SDS011;56800;52.142;5.364;2022-09-09T00:03:42;3.10;;;1.17;;
69594;SDS011;56800;52.142;5.364;2022-09-09T00:06:16;5.45;;;1.60;;
69594;SDS011;56800;52.142;5.364;2022-09-09T00:11:28;2.77;;;1.50;;
69594;SDS011;56800;52.142;5.364;2022-09-09T00:14:12;3.65;;;1.70;;
69594;SDS011;56800;52.142;5.364;2022-09-09T00:16:43;4.30;;;1.45;;
69594;SDS011;56800;52.142;5.364;2022-09-09T00:19:28;3.53;;;1.42;;
69594;SDS011;56800;52.142;5.364;2022-09-09T00:24:43;4.37;;;1.70;;
69594;SDS011;56800;52.142;5.364;2022-09-09T00:27:19;3.47;;;1.35;;
69594;SDS011;56800;52.142;5.364;2022-09-09T00:29:54;4.07;;;1.55;;
69594;SDS011;56800;52.142;5.364;2022-09-09T00:32:46;3.92;;;1.83;;
69594;SDS011;56800;52.142;5.364;2022-09-09T00:35:24;5.15;;;1.50;;
69594;SDS011;56800;52.142;5.364;2022-09-09T00:37:56;6.83;;;2.10;;
69594;SDS011;56800;52.142;5.364;2022-09-09T00:40:31;5.43;;;1.60;;
69594;SDS011;56800;52.142;5.364;2022-09-09T00:43:07;4.88;;;1.95;;
69594;SDS011;56800;52.142;5.364;2022-09-09T00:48:57;7.53;;;2.33;;
69594;SDS011;56800;52.142;5.364;2022-09-09T01:05:54;6.27;;;2.30;;
69594;SDS011;56800;52.142;5.364;2022-09-09T01:08:39;3.97;;;2.30;;
69594;SDS011;56800;52.142;5.364;2022-09-09T01:11:26;4.10;;;2.17;;
69594;SDS011;56800;52.142;5.364;2022-09-09T01:14:16;5.47;;;2.10;;
69594;SDS011;56800;52.142;5.364;2022-09-09T01:16:53;6.05;;;2.38;;
69594;SDS011;56800;52.142;5.364;2022-09-09T01:22:42;7.18;;;2.33;;
69594;SDS011;56800;52.142;5.364;2022-09-09T01:25:28;4.32;;;2.40;;
69594;SDS011;56800;52.142;5.364;2022-09-09T01:28:16;5.35;;;2.30;;
69594;SDS011;56800;52.142;5.364;2022-09-09T01:30:48;7.40;;;3.05;;
69594;SDS011;56800;52.142;5.364;2022-09-09T01:33:16;4.40;;;2.30;;
69594;SDS011;56800;52.142;5.364;2022-09-09T01:36:00;4.28;;;2.22;;
69594;SDS011;56800;52.142;5.364;2022-09-09T01:38:40;6.68;;;2.65;;
69594;SDS011;56800;52.142;5.364;2022-09-09T01:41:07;5.18;;;2.40;;
69594;SDS011;56800;52.142;5.364;2022-09-09T01:43:33;8.27;;;3.10;;
69594;SDS011;56800;52.142;5.364;2022-09-09T01:46:00;6.90;;;2.70;;
69594;SDS011;56800;52.142;5.364;2022-09-09T01:48:28;6.22;;;2.58;;
69594;SDS011;56800;52.142;5.364;2022-09-09T01:50:55;8.18;;;3.10;;
69594;SDS011;56800;52.142;5.364;2022-09-09T01:53:22;7.43;;;2.80;;
69594;SDS011;56800;52.142;5.364;2022-09-09T01:56:08;5.63;;;2.50;;
69594;SDS011;56800;52.142;5.364;2022-09-09T02:06:57;7.20;;;3.15;;
69594;SDS011;56800;52.142;5.364;2022-09-09T02:09:26;7.13;;;2.83;;
69594;SDS011;56800;52.142;5.364;2022-09-09T02:11:57;6.73;;;3.07;;
69594;SDS011;56800;52.142;5.364;2022-09-09T02:14:33;5.82;;;2.95;;
69594;SDS011;56800;52.142;5.364;2022-09-09T02:17:13;6.13;;;3.15;;
69594;SDS011;56800;52.142;5.364;2022-09-09T02:19:46;4.93;;;2.88;;
69594;SDS011;56800;52.142;5.364;2022-09-09T02:22:18;6.55;;;3.05;;
69594;SDS011;56800;52.142;5.364;2022-09-09T02:24:48;7.80;;;3.33;;
69594;SDS011;56800;52.142;5.364;2022-09-09T02:27:20;12.43;;;3.42;;
69594;SDS011;56800;52.142;5.364;2022-09-09T02:29:49;6.07;;;3.40;;
69594;SDS011;56800;52.142;5.364;2022-09-09T02:32:17;7.57;;;3.42;;
69594;SDS011;56800;52.142;5.364;2022-09-09T02:34:54;6.30;;;3.22;;
69594;SDS011;56800;52.142;5.364;2022-09-09T02:37:26;6.53;;;3.70;;
69594;SDS011;56800;52.142;5.364;2022-09-09T02:39:57;5.35;;;3.50;;
69594;SDS011;56800;52.142;5.364;2022-09-09T02:42:24;4.80;;;3.50;;
69594;SDS011;56800;52.142;5.364;2022-09-09T02:44:51;6.75;;;3.95;;
69594;SDS011;56800;52.142;5.364;2022-09-09T02:47:24;7.80;;;3.78;;
69594;SDS011;56800;52.142;5.364;2022-09-09T02:49:57;6.67;;;3.87;;
69594;SDS011;56800;52.142;5.364;2022-09-09T02:58:16;8.27;;;3.90;;
69594;SDS011;56800;52.142;5.364;2022-09-09T03:00:48;7.75;;;3.53;;
69594;SDS011;56800;52.142;5.364;2022-09-09T03:03:16;6.70;;;3.93;;
69594;SDS011;56800;52.142;5.364;2022-09-09T03:05:45;7.95;;;4.05;;
69594;SDS011;56800;52.142;5.364;2022-09-09T03:08:12;8.30;;;3.70;;
69594;SDS011;56800;52.142;5.364;2022-09-09T03:10:39;13.57;;;4.30;;
69594;SDS011;56800;52.142;5.364;2022-09-09T03:13:06;7.32;;;4.20;;
69594;SDS011;56800;52.142;5.364;2022-09-09T03:15:32;6.60;;;3.83;;
69594;SDS011;56800;52.142;5.364;2022-09-09T03:18:00;8.07;;;4.35;;
69594;SDS011;56800;52.142;5.364;2022-09-09T03:20:28;6.85;;;3.30;;
69594;SDS011;56800;52.142;5.364;2022-09-09T03:22:56;7.22;;;3.75;;
69594;SDS011;56800;52.142;5.364;2022-09-09T03:25:23;7.03;;;4.75;;
69594;SDS011;56800;52.142;5.364;2022-09-09T03:27:50;9.57;;;4.57;;
69594;SDS011;56800;52.142;5.364;2022-09-09T03:30:24;10.75;;;5.20;;
69594;SDS011;56800;52.142;5.364;2022-09-09T03:32:54;9.55;;;4.35;;
69594;SDS011;56800;52.142;5.364;2022-09-09T03:35:22;9.77;;;4.40;;
69594;SDS011;56800;52.142;5.364;2022-09-09T03:37:52;7.20;;;4.82;;
69594;SDS011;56800;52.142;5.364;2022-09-09T03:40:21;9.50;;;5.40;;
69594;SDS011;56800;52.142;5.364;2022-09-09T03:42:51;9.77;;;5.07;;
69594;SDS011;56800;52.142;5.364;2022-09-09T03:45:18;7.35;;;4.85;;
69594;SDS011;56800;52.142;5.364;2022-09-09T03:47:45;9.88;;;4.97;;
69594;SDS011;56800;52.142;5.364;2022-09-09T03:50:18;9.15;;;4.70;;
69594;SDS011;56800;52.142;5.364;2022-09-09T03:52:45;11.23;;;5.13;;
69594;SDS011;56800;52.142;5.364;2022-09-09T03:55:13;7.50;;;5.32;;
69594;SDS011;56800;52.142;5.364;2022-09-09T03:57:39;10.07;;;5.47;;
69594;SDS011;56800;52.142;5.364;2022-09-09T04:00:06;12.45;;;5.63;;
69594;SDS011;56800;52.142;5.364;2022-09-09T04:02:34;10.05;;;5.10;;
69594;SDS011;56800;52.142;5.364;2022-09-09T04:05:00;11.57;;;5.23;;
69594;SDS011;56800;52.142;5.364;2022-09-09T04:07:27;8.52;;;5.15;;
69594;SDS011;56800;52.142;5.364;2022-09-09T04:09:54;12.68;;;5.60;;
69594;SDS011;56800;52.142;5.364;2022-09-09T04:12:21;10.70;;;5.80;;
69594;SDS011;56800;52.142;5.364;2022-09-09T04:14:48;14.38;;;5.43;;
69594;SDS011;56800;52.142;5.364;2022-09-09T04:17:15;13.90;;;4.83;;
69594;SDS011;56800;52.142;5.364;2022-09-09T04:19:43;6.80;;;4.53;;
69594;SDS011;56800;52.142;5.364;2022-09-09T04:22:10;8.25;;;5.22;;
69594;SDS011;56800;52.142;5.364;2022-09-09T04:24:36;15.45;;;6.05;;
69594;SDS011;56800;52.142;5.364;2022-09-09T04:27:03;9.90;;;6.10;;
69594;SDS011;56800;52.142;5.364;2022-09-09T04:29:30;10.23;;;5.73;;
69594;SDS011;56800;52.142;5.364;2022-09-09T04:31:57;11.40;;;5.80;;
69594;SDS011;56800;52.142;5.364;2022-09-09T04:34:23;11.93;;;5.95;;
69594;SDS011;56800;52.142;5.364;2022-09-09T04:36:51;11.82;;;5.50;;
69594;SDS011;56800;52.142;5.364;2022-09-09T04:39:18;8.73;;;5.45;;
69594;SDS011;56800;52.142;5.364;2022-09-09T04:41:45;11.40;;;5.73;;
69594;SDS011;56800;52.142;5.364;2022-09-09T04:44:13;9.00;;;5.43;;
69594;SDS011;56800;52.142;5.364;2022-09-09T04:46:39;14.90;;;5.97;;
69594;SDS011;56800;52.142;5.364;2022-09-09T04:49:07;10.80;;;5.30;;
69594;SDS011;56800;52.142;5.364;2022-09-09T04:51:40;11.88;;;5.60;;
69594;SDS011;56800;52.142;5.364;2022-09-09T04:54:06;12.10;;;5.17;;
69594;SDS011;56800;52.142;5.364;2022-09-09T04:56:33;9.88;;;5.88;;
69594;SDS011;56800;52.142;5.364;2022-09-09T04:59:00;12.43;;;5.15;;
69594;SDS011;56800;52.142;5.364;2022-09-09T05:01:28;10.27;;;5.30;;
69594;SDS011;56800;52.142;5.364;2022-09-09T05:03:55;10.82;;;5.30;;
69594;SDS011;56800;52.142;5.364;2022-09-09T05:06:22;12.70;;;5.47;;
69594;SDS011;56800;52.142;5.364;2022-09-09T05:08:49;11.85;;;5.63;;
69594;SDS011;56800;52.142;5.364;2022-09-09T05:11:17;11.55;;;4.65;;
69594;SDS011;56800;52.142;5.364;2022-09-09T05:13:46;11.43;;;4.95;;
69594;SDS011;56800;52.142;5.364;2022-09-09T05:16:16;9.15;;;4.72;;
69594;SDS011;56800;52.142;5.364;2022-09-09T05:18:44;8.20;;;4.93;;
69594;SDS011;56800;52.142;5.364;2022-09-09T05:21:16;10.20;;;5.00;;
69594;SDS011;56800;52.142;5.364;2022-09-09T05:23:44;7.97;;;4.47;;
69594;SDS011;56800;52.142;5.364;2022-09-09T05:26:15;9.98;;;4.32;;
69594;SDS011;56800;52.142;5.364;2022-09-09T05:28:43;14.02;;;5.25;;
69594;SDS011;56800;52.142;5.364;2022-09-09T05:31:10;10.13;;;4.40;;
69594;SDS011;56800;52.142;5.364;2022-09-09T05:33:39;9.23;;;4.20;;
69594;SDS011;56800;52.142;5.364;2022-09-09T05:36:10;8.40;;;4.38;;
69594;SDS011;56800;52.142;5.364;2022-09-09T05:38:39;8.70;;;4.10;;
69594;SDS011;56800;52.142;5.364;2022-09-09T05:41:06;7.40;;;4.50;;
69594;SDS011;56800;52.142;5.364;2022-09-09T05:43:33;12.80;;;4.70;;
69594;SDS011;56800;52.142;5.364;2022-09-09T05:46:02;8.82;;;3.85;;
69594;SDS011;56800;52.142;5.364;2022-09-09T05:48:37;11.48;;;4.35;;
69594;SDS011;56800;52.142;5.364;2022-09-09T05:51:05;9.23;;;4.30;;
69594;SDS011;56800;52.142;5.364;2022-09-09T05:53:34;10.65;;;4.60;;
69594;SDS011;56800;52.142;5.364;2022-09-09T05:56:02;10.07;;;3.93;;
69594;SDS011;56800;52.142;5.364;2022-09-09T05:58:34;14.57;;;4.18;;
69594;SDS011;56800;52.142;5.364;2022-09-09T06:01:17;7.13;;;4.32;;
69594;SDS011;56800;52.142;5.364;2022-09-09T06:03:48;10.77;;;4.78;;
69594;SDS011;56800;52.142;5.364;2022-09-09T06:06:17;11.75;;;4.88;;
69594;SDS011;56800;52.142;5.364;2022-09-09T06:08:49;12.70;;;4.80;;
69594;SDS011;56800;52.142;5.364;2022-09-09T06:11:18;14.88;;;4.95;;
69594;SDS011;56800;52.142;5.364;2022-09-09T06:13:46;8.65;;;4.60;;
69594;SDS011;56800;52.142;5.364;2022-09-09T06:16:16;13.40;;;4.82;;
69594;SDS011;56800;52.142;5.364;2022-09-09T06:18:44;11.88;;;4.20;;
69594;SDS011;56800;52.142;5.364;2022-09-09T06:21:14;9.93;;;3.90;;
69594;SDS011;56800;52.142;5.364;2022-09-09T06:23:43;9.15;;;4.25;;
69594;SDS011;56800;52.142;5.364;2022-09-09T06:28:43;14.30;;;4.07;;
69594;SDS011;56800;52.142;5.364;2022-09-09T06:31:14;9.90;;;3.83;;
69594;SDS011;56800;52.142;5.364;2022-09-09T06:33:54;11.13;;;4.30;;
69594;SDS011;56800;52.142;5.364;2022-09-09T06:36:23;12.77;;;3.75;;
69594;SDS011;56800;52.142;5.364;2022-09-09T06:38:51;13.63;;;4.22;;
69594;SDS011;56800;52.142;5.364;2022-09-09T06:41:18;11.73;;;3.97;;
69594;SDS011;56800;52.142;5.364;2022-09-09T06:43:46;15.43;;;4.07;;
69594;SDS011;56800;52.142;5.364;2022-09-09T06:46:20;12.77;;;3.87;;
69594;SDS011;56800;52.142;5.364;2022-09-09T06:48:51;16.50;;;3.97;;
69594;SDS011;56800;52.142;5.364;2022-09-09T06:51:18;14.43;;;3.72;;
69594;SDS011;56800;52.142;5.364;2022-09-09T06:53:50;18.65;;;3.50;;
69594;SDS011;56800;52.142;5.364;2022-09-09T06:58:50;17.20;;;3.40;;
69594;SDS011;56800;52.142;5.364;2022-09-09T07:01:19;14.93;;;3.70;;
69594;SDS011;56800;52.142;5.364;2022-09-09T07:03:51;12.20;;;3.60;;
69594;SDS011;56800;52.142;5.364;2022-09-09T07:06:20;13.23;;;3.35;;
69594;SDS011;56800;52.142;5.364;2022-09-09T07:08:56;7.68;;;2.80;;
69594;SDS011;56800;52.142;5.364;2022-09-09T07:11:26;10.37;;;3.03;;
69594;SDS011;56800;52.142;5.364;2022-09-09T07:13:55;13.05;;;3.40;;
69594;SDS011;56800;52.142;5.364;2022-09-09T07:16:23;12.40;;;2.70;;
69594;SDS011;56800;52.142;5.364;2022-09-09T07:18:51;12.70;;;3.20;;
69594;SDS011;56800;52.142;5.364;2022-09-09T07:21:18;12.60;;;3.00;;
69594;SDS011;56800;52.142;5.364;2022-09-09T07:23:46;15.93;;;3.37;;
69594;SDS011;56800;52.142;5.364;2022-09-09T07:26:14;16.35;;;3.58;;
69594;SDS011;56800;52.142;5.364;2022-09-09T07:28:43;10.80;;;3.38;;
69594;SDS011;56800;52.142;5.364;2022-09-09T07:31:15;14.88;;;2.97;;
69594;SDS011;56800;52.142;5.364;2022-09-09T07:34:07;16.83;;;3.55;;
69594;SDS011;56800;52.142;5.364;2022-09-09T07:36:39;10.37;;;2.63;;
69594;SDS011;56800;52.142;5.364;2022-09-09T07:39:10;8.43;;;2.53;;
69594;SDS011;56800;52.142;5.364;2022-09-09T07:41:43;13.27;;;3.50;;
69594;SDS011;56800;52.142;5.364;2022-09-09T07:44:15;11.32;;;2.85;;
69594;SDS011;56800;52.142;5.364;2022-09-09T07:46:44;10.60;;;2.85;;
69594;SDS011;56800;52.142;5.364;2022-09-09T07:49:11;17.97;;;3.53;;
69594;SDS011;56800;52.142;5.364;2022-09-09T07:51:39;13.75;;;3.22;;
69594;SDS011;56800;52.142;5.364;2022-09-09T07:54:43;13.73;;;3.53;;
69594;SDS011;56800;52.142;5.364;2022-09-09T07:57:11;13.52;;;3.47;;
69594;SDS011;56800;52.142;5.364;2022-09-09T07:59:38;14.77;;;3.22;;
69594;SDS011;56800;52.142;5.364;2022-09-09T08:02:05;10.90;;;3.47;;
69594;SDS011;56800;52.142;5.364;2022-09-09T08:04:32;11.18;;;2.95;;
69594;SDS011;56800;52.142;5.364;2022-09-09T08:07:00;13.68;;;3.22;;
69594;SDS011;56800;52.142;5.364;2022-09-09T08:09:29;11.50;;;3.00;;
69594;SDS011;56800;52.142;5.364;2022-09-09T08:11:56;13.52;;;3.35;;
69594;SDS011;56800;52.142;5.364;2022-09-09T08:14:23;11.27;;;3.13;;
69594;SDS011;56800;52.142;5.364;2022-09-09T08:16:50;10.73;;;3.05;;
69594;SDS011;56800;52.142;5.364;2022-09-09T08:19:20;9.88;;;2.63;;
69594;SDS011;56800;52.142;5.364;2022-09-09T08:21:46;14.57;;;2.97;;
69594;SDS011;56800;52.142;5.364;2022-09-09T08:24:14;12.50;;;3.42;;
69594;SDS011;56800;52.142;5.364;2022-09-09T08:26:43;14.13;;;3.07;;
69594;SDS011;56800;52.142;5.364;2022-09-09T08:29:11;12.02;;;3.50;;
69594;SDS011;56800;52.142;5.364;2022-09-09T08:31:44;12.98;;;3.33;;
69594;SDS011;56800;52.142;5.364;2022-09-09T08:34:12;10.23;;;2.90;;
69594;SDS011;56800;52.142;5.364;2022-09-09T08:36:41;11.82;;;2.80;;
69594;SDS011;56800;52.142;5.364;2022-09-09T08:39:10;12.37;;;2.50;;
69594;SDS011;56800;52.142;5.364;2022-09-09T08:41:45;14.07;;;3.15;;
69594;SDS011;56800;52.142;5.364;2022-09-09T08:55:28;13.18;;;2.88;;
69594;SDS011;56800;52.142;5.364;2022-09-09T08:58:12;12.35;;;2.47;;
69594;SDS011;56800;52.142;5.364;2022-09-09T09:06:34;18.57;;;2.60;;
69594;SDS011;56800;52.142;5.364;2022-09-09T09:09:44;11.43;;;2.30;;
69594;SDS011;56800;52.142;5.364;2022-09-09T09:12:23;12.85;;;2.70;;
69594;SDS011;56800;52.142;5.364;2022-09-09T09:14:52;12.75;;;2.40;;
69594;SDS011;56800;52.142;5.364;2022-09-09T09:17:23;9.55;;;2.30;;
69594;SDS011;56800;52.142;5.364;2022-09-09T09:19:53;9.07;;;2.87;;
69594;SDS011;56800;52.142;5.364;2022-09-09T09:22:21;13.77;;;2.50;;
69594;SDS011;56800;52.142;5.364;2022-09-09T09:27:48;6.85;;;2.30;;
69594;SDS011;56800;52.142;5.364;2022-09-09T09:30:35;12.32;;;2.50;;
69594;SDS011;56800;52.142;5.364;2022-09-09T09:33:06;12.57;;;2.37;;
69594;SDS011;56800;52.142;5.364;2022-09-09T09:35:48;9.90;;;2.80;;
69594;SDS011;56800;52.142;5.364;2022-09-09T09:38:25;11.98;;;2.35;;
69594;SDS011;56800;52.142;5.364;2022-09-09T09:41:13;15.60;;;2.17;;
69594;SDS011;56800;52.142;5.364;2022-09-09T09:43:40;14.02;;;2.83;;
69594;SDS011;56800;52.142;5.364;2022-09-09T09:46:20;7.70;;;2.17;;
69594;SDS011;56800;52.142;5.364;2022-09-09T09:49:02;11.40;;;2.42;;
69594;SDS011;56800;52.142;5.364;2022-09-09T09:51:31;11.77;;;2.63;;
69594;SDS011;56800;52.142;5.364;2022-09-09T09:54:09;13.90;;;2.88;;
69594;SDS011;56800;52.142;5.364;2022-09-09T09:56:39;12.18;;;2.20;;
69594;SDS011;56800;52.142;5.364;2022-09-09T09:59:19;16.43;;;2.83;;
69594;SDS011;56800;52.142;5.364;2022-09-09T10:02:05;12.35;;;2.35;;
69594;SDS011;56800;52.142;5.364;2022-09-09T10:04:43;12.40;;;2.80;;
69594;SDS011;56800;52.142;5.364;2022-09-09T10:07:21;8.75;;;2.40;;
69594;SDS011;56800;52.142;5.364;2022-09-09T10:09:50;10.90;;;3.03;;
69594;SDS011;56800;52.142;5.364;2022-09-09T10:18:22;14.68;;;2.80;;
69594;SDS011;56800;52.142;5.364;2022-09-09T10:21:04;11.55;;;2.55;;
69594;SDS011;56800;52.142;5.364;2022-09-09T10:29:10;9.88;;;2.63;;
69594;SDS011;56800;52.142;5.364;2022-09-09T10:34:39;13.13;;;2.92;;
69594;SDS011;56800;52.142;5.364;2022-09-09T10:40:34;12.90;;;2.93;;
69594;SDS011;56800;52.142;5.364;2022-09-09T10:49:03;9.65;;;2.35;;
69594;SDS011;56800;52.142;5.364;2022-09-09T10:54:49;14.07;;;2.60;;
69594;SDS011;56800;52.142;5.364;2022-09-09T10:57:45;11.38;;;2.70;;
69594;SDS011;56800;52.142;5.364;2022-09-09T11:00:19;10.57;;;2.83;;
69594;SDS011;56800;52.142;5.364;2022-09-09T11:02:56;11.65;;;2.83;;
69594;SDS011;56800;52.142;5.364;2022-09-09T11:08:10;8.20;;;2.40;;
69594;SDS011;56800;52.142;5.364;2022-09-09T11:13:23;10.77;;;2.85;;
69594;SDS011;56800;52.142;5.364;2022-09-09T11:16:05;14.10;;;3.00;;
69594;SDS011;56800;52.142;5.364;2022-09-09T11:18:58;8.55;;;3.03;;
69594;SDS011;56800;52.142;5.364;2022-09-09T11:21:31;6.90;;;2.20;;
69594;SDS011;56800;52.142;5.364;2022-09-09T11:24:10;10.82;;;2.72;;
69594;SDS011;56800;52.142;5.364;2022-09-09T11:26:55;9.13;;;2.55;;
69594;SDS011;56800;52.142;5.364;2022-09-09T11:29:52;12.38;;;2.90;;
69594;SDS011;56800;52.142;5.364;2022-09-09T11:38:16;5.85;;;2.25;;
69594;SDS011;56800;52.142;5.364;2022-09-09T11:40:53;11.50;;;3.00;;
69594;SDS011;56800;52.142;5.364;2022-09-09T11:43:30;7.00;;;2.30;;
69594;SDS011;56800;52.142;5.364;2022-09-09T11:46:00;9.32;;;2.42;;
69594;SDS011;56800;52.142;5.364;2022-09-09T11:48:38;7.67;;;2.03;;
69594;SDS011;56800;52.142;5.364;2022-09-09T11:53:51;8.73;;;2.60;;
69594;SDS011;56800;52.142;5.364;2022-09-09T11:56:34;9.35;;;2.47;;
69594;SDS011;56800;52.142;5.364;2022-09-09T11:59:20;7.80;;;2.00;;
69594;SDS011;56800;52.142;5.364;2022-09-09T12:01:55;9.97;;;2.63;;
69594;SDS011;56800;52.142;5.364;2022-09-09T12:07:38;8.10;;;2.65;;
69594;SDS011;56800;52.142;5.364;2022-09-09T12:10:29;10.18;;;2.75;;
69594;SDS011;56800;52.142;5.364;2022-09-09T12:15:48;12.03;;;2.67;;
69594;SDS011;56800;52.142;5.364;2022-09-09T12:18:36;8.80;;;2.70;;
69594;SDS011;56800;52.142;5.364;2022-09-09T12:21:16;9.50;;;2.45;;
69594;SDS011;56800;52.142;5.364;2022-09-09T12:24:03;9.55;;;2.50;;
69594;SDS011;56800;52.142;5.364;2022-09-09T12:26:43;7.88;;;2.60;;
69594;SDS011;56800;52.142;5.364;2022-09-09T12:32:25;7.30;;;2.47;;
69594;SDS011;56800;52.142;5.364;2022-09-09T12:35:26;6.82;;;2.40;;
69594;SDS011;56800;52.142;5.364;2022-09-09T12:37:49;7.45;;;2.65;;
69594;SDS011;56800;52.142;5.364;2022-09-09T12:40:21;8.25;;;2.88;;
69594;SDS011;56800;52.142;5.364;2022-09-09T12:43:01;8.37;;;2.60;;
69594;SDS011;56800;52.142;5.364;2022-09-09T12:45:42;9.40;;;2.80;;
69594;SDS011;56800;52.142;5.364;2022-09-09T12:48:09;8.30;;;3.03;;
69594;SDS011;56800;52.142;5.364;2022-09-09T12:50:44;9.10;;;3.00;;
69594;SDS011;56800;52.142;5.364;2022-09-09T12:53:54;8.57;;;2.63;;
69594;SDS011;56800;52.142;5.364;2022-09-09T12:56:04;11.93;;;3.13;;
69594;SDS011;56800;52.142;5.364;2022-09-09T12:58:35;8.07;;;2.80;;
69594;SDS011;56800;52.142;5.364;2022-09-09T13:01:04;10.10;;;3.28;;
69594;SDS011;56800;52.142;5.364;2022-09-09T13:03:32;7.35;;;2.78;;
69594;SDS011;56800;52.142;5.364;2022-09-09T13:06:12;6.88;;;2.80;;
69594;SDS011;56800;52.142;5.364;2022-09-09T13:08:45;8.50;;;2.70;;
69594;SDS011;56800;52.142;5.364;2022-09-09T13:11:23;8.70;;;2.85;;
69594;SDS011;56800;52.142;5.364;2022-09-09T13:14:05;7.65;;;3.10;;
69594;SDS011;56800;52.142;5.364;2022-09-09T13:16:33;9.32;;;2.47;;
69594;SDS011;56800;52.142;5.364;2022-09-09T13:19:08;14.95;;;2.65;;
69594;SDS011;56800;52.142;5.364;2022-09-09T13:21:37;8.07;;;2.00;;
69594;SDS011;56800;52.142;5.364;2022-09-09T13:24:05;8.63;;;2.30;;
69594;SDS011;56800;52.142;5.364;2022-09-09T13:26:53;9.45;;;2.72;;
69594;SDS011;56800;52.142;5.364;2022-09-09T13:29:40;7.15;;;2.30;;
69594;SDS011;56800;52.142;5.364;2022-09-09T13:32:24;7.88;;;2.42;;
69594;SDS011;56800;52.142;5.364;2022-09-09T13:34:59;8.87;;;2.53;;
69594;SDS011;56800;52.142;5.364;2022-09-09T13:39:54;11.07;;;2.85;;
69594;SDS011;56800;52.142;5.364;2022-09-09T13:42:25;13.63;;;2.63;;
69594;SDS011;56800;52.142;5.364;2022-09-09T13:44:54;8.52;;;2.60;;
69594;SDS011;56800;52.142;5.364;2022-09-09T13:47:26;11.00;;;2.87;;
69594;SDS011;56800;52.142;5.364;2022-09-09T13:49:58;8.40;;;2.65;;
69594;SDS011;56800;52.142;5.364;2022-09-09T13:52:35;8.23;;;3.05;;
69594;SDS011;56800;52.142;5.364;2022-09-09T13:55:02;10.43;;;3.05;;
69594;SDS011;56800;52.142;5.364;2022-09-09T13:57:28;6.93;;;2.25;;
69594;SDS011;56800;52.142;5.364;2022-09-09T13:59:55;8.73;;;3.00;;
69594;SDS011;56800;52.142;5.364;2022-09-09T14:02:31;9.23;;;2.97;;
69594;SDS011;56800;52.142;5.364;2022-09-09T14:04:58;11.10;;;3.03;;
69594;SDS011;56800;52.142;5.364;2022-09-09T14:07:25;8.85;;;2.50;;
69594;SDS011;56800;52.142;5.364;2022-09-09T14:09:51;8.27;;;2.40;;
69594;SDS011;56800;52.142;5.364;2022-09-09T14:12:18;10.52;;;2.88;;
69594;SDS011;56800;52.142;5.364;2022-09-09T14:14:46;12.80;;;2.47;;
69594;SDS011;56800;52.142;5.364;2022-09-09T14:17:12;8.07;;;2.50;;
69594;SDS011;56800;52.142;5.364;2022-09-09T14:19:40;10.27;;;2.45;;
69594;SDS011;56800;52.142;5.364;2022-09-09T14:22:06;8.90;;;2.22;;
69594;SDS011;56800;52.142;5.364;2022-09-09T14:24:33;8.97;;;2.43;;
69594;SDS011;56800;52.142;5.364;2022-09-09T14:27:00;12.63;;;3.42;;
69594;SDS011;56800;52.142;5.364;2022-09-09T14:29:27;9.15;;;2.97;;
69594;SDS011;56800;52.142;5.364;2022-09-09T14:31:53;8.45;;;2.75;;
69594;SDS011;56800;52.142;5.364;2022-09-09T14:34:20;7.60;;;2.75;;
69594;SDS011;56800;52.142;5.364;2022-09-09T14:36:47;7.93;;;2.83;;
69594;SDS011;56800;52.142;5.364;2022-09-09T14:39:14;8.77;;;2.95;;
69594;SDS011;56800;52.142;5.364;2022-09-09T14:41:41;10.43;;;3.10;;
69594;SDS011;56800;52.142;5.364;2022-09-09T14:44:07;7.93;;;2.65;;
69594;SDS011;56800;52.142;5.364;2022-09-09T14:46:34;12.70;;;3.20;;
69594;SDS011;56800;52.142;5.364;2022-09-09T14:49:01;9.93;;;4.50;;
69594;SDS011;56800;52.142;5.364;2022-09-09T14:51:27;14.25;;;3.90;;
69594;SDS011;56800;52.142;5.364;2022-09-09T14:53:57;11.13;;;5.00;;
69594;SDS011;56800;52.142;5.364;2022-09-09T14:56:25;15.07;;;4.25;;
69594;SDS011;56800;52.142;5.364;2022-09-09T14:58:54;12.15;;;4.72;;
69594;SDS011;56800;52.142;5.364;2022-09-09T15:01:21;15.73;;;5.17;;
69594;SDS011;56800;52.142;5.364;2022-09-09T15:03:50;8.20;;;3.35;;
69594;SDS011;56800;52.142;5.364;2022-09-09T15:06:18;8.90;;;3.30;;
69594;SDS011;56800;52.142;5.364;2022-09-09T15:08:47;7.43;;;3.10;;
69594;SDS011;56800;52.142;5.364;2022-09-09T15:11:14;9.48;;;3.35;;
69594;SDS011;56800;52.142;5.364;2022-09-09T15:13:41;6.83;;;2.80;;
69594;SDS011;56800;52.142;5.364;2022-09-09T15:16:12;11.85;;;2.88;;
69594;SDS011;56800;52.142;5.364;2022-09-09T15:18:41;8.70;;;2.80;;
69594;SDS011;56800;52.142;5.364;2022-09-09T15:21:15;5.45;;;2.40;;
69594;SDS011;56800;52.142;5.364;2022-09-09T15:23:47;6.45;;;2.22;;
69594;SDS011;56800;52.142;5.364;2022-09-09T15:26:14;5.00;;;1.70;;
69594;SDS011;56800;52.142;5.364;2022-09-09T15:28:42;5.93;;;2.13;;
69594;SDS011;56800;52.142;5.364;2022-09-09T15:31:47;3.85;;;1.58;;
69594;SDS011;56800;52.142;5.364;2022-09-09T15:34:15;4.50;;;1.65;;
69594;SDS011;56800;52.142;5.364;2022-09-09T15:36:44;6.20;;;1.80;;
69594;SDS011;56800;52.142;5.364;2022-09-09T15:39:14;5.07;;;1.80;;
69594;SDS011;56800;52.142;5.364;2022-09-09T15:41:42;4.88;;;1.85;;
69594;SDS011;56800;52.142;5.364;2022-09-09T15:44:10;5.57;;;2.50;;
69594;SDS011;56800;52.142;5.364;2022-09-09T15:46:39;6.22;;;2.10;;
69594;SDS011;56800;52.142;5.364;2022-09-09T15:49:15;8.25;;;1.92;;
69594;SDS011;56800;52.142;5.364;2022-09-09T15:51:53;7.10;;;2.35;;
69594;SDS011;56800;52.142;5.364;2022-09-09T15:54:25;6.90;;;2.05;;
69594;SDS011;56800;52.142;5.364;2022-09-09T15:56:56;5.45;;;1.95;;
69594;SDS011;56800;52.142;5.364;2022-09-09T15:59:30;5.43;;;2.38;;
69594;SDS011;56800;52.142;5.364;2022-09-09T16:02:08;7.53;;;2.17;;
69594;SDS011;56800;52.142;5.364;2022-09-09T16:04:36;3.73;;;1.73;;
69594;SDS011;56800;52.142;5.364;2022-09-09T16:07:05;4.22;;;2.20;;
69594;SDS011;56800;52.142;5.364;2022-09-09T16:09:32;6.50;;;2.20;;
69594;SDS011;56800;52.142;5.364;2022-09-09T16:11:59;4.82;;;1.98;;
69594;SDS011;56800;52.142;5.364;2022-09-09T16:14:27;5.75;;;2.42;;
69594;SDS011;56800;52.142;5.364;2022-09-09T16:16:56;6.30;;;2.17;;
69594;SDS011;56800;52.142;5.364;2022-09-09T16:19:23;8.73;;;2.55;;
69594;SDS011;56800;52.142;5.364;2022-09-09T16:21:49;3.90;;;1.98;;
69594;SDS011;56800;52.142;5.364;2022-09-09T16:24:18;4.72;;;1.83;;
69594;SDS011;56800;52.142;5.364;2022-09-09T16:26:59;5.90;;;2.22;;
69594;SDS011;56800;52.142;5.364;2022-09-09T16:29:28;6.10;;;1.93;;
69594;SDS011;56800;52.142;5.364;2022-09-09T16:31:55;8.35;;;2.13;;
69594;SDS011;56800;52.142;5.364;2022-09-09T16:34:28;5.55;;;2.22;;
69594;SDS011;56800;52.142;5.364;2022-09-09T16:36:55;4.95;;;2.35;;
69594;SDS011;56800;52.142;5.364;2022-09-09T16:39:22;4.57;;;2.00;;
69594;SDS011;56800;52.142;5.364;2022-09-09T16:41:49;4.13;;;1.90;;
69594;SDS011;56800;52.142;5.364;2022-09-09T16:44:16;6.63;;;2.47;;
69594;SDS011;56800;52.142;5.364;2022-09-09T16:46:45;5.82;;;1.95;;
69594;SDS011;56800;52.142;5.364;2022-09-09T16:49:14;4.47;;;2.00;;
69594;SDS011;56800;52.142;5.364;2022-09-09T16:51:49;7.57;;;2.13;;
69594;SDS011;56800;52.142;5.364;2022-09-09T16:54:27;6.17;;;2.13;;
69594;SDS011;56800;52.142;5.364;2022-09-09T16:56:55;6.72;;;2.33;;
69594;SDS011;56800;52.142;5.364;2022-09-09T16:59:24;7.43;;;2.85;;
69594;SDS011;56800;52.142;5.364;2022-09-09T17:01:52;4.88;;;2.30;;
69594;SDS011;56800;52.142;5.364;2022-09-09T17:04:22;5.68;;;2.28;;
69594;SDS011;56800;52.142;5.364;2022-09-09T17:06:54;10.33;;;2.47;;
69594;SDS011;56800;52.142;5.364;2022-09-09T17:09:26;5.35;;;2.22;;
69594;SDS011;56800;52.142;5.364;2022-09-09T17:11:56;7.13;;;2.35;;